createdAt,value
2023-01-17T00:00:09.607Z,86.80
2023-01-17T00:01:29.318Z,87.02
2023-01-17T00:02:38.182Z,87.08
2023-01-17T00:04:13.016Z,87.13
2023-01-17T00:05:35.079Z,87.08
2023-01-17T00:06:56.164Z,87.14
2023-01-17T00:08:17.662Z,87.33
2023-01-17T00:09:38.603Z,87.35
2023-01-17T00:10:42.250Z,87.37
2023-01-17T00:11:44.879Z,87.42
2023-01-17T00:12:53.806Z,87.48
2023-01-17T00:13:56.412Z,87.50
2023-01-17T00:15:00.253Z,87.59
2023-01-17T00:16:03.002Z,87.86
2023-01-17T00:17:05.685Z,88.06
2023-01-17T00:18:08.469Z,88.08
2023-01-17T00:19:29.591Z,88.12
2023-01-17T00:20:54.997Z,88.25
2023-01-17T00:22:17.218Z,88.20
2023-01-17T00:23:44.058Z,88.07
2023-01-17T00:25:06.193Z,88.06
2023-01-17T00:26:20.605Z,87.97
2023-01-17T00:27:23.214Z,87.81
2023-01-17T00:28:26.967Z,87.68
2023-01-17T00:29:29.571Z,87.59
2023-01-17T00:30:32.522Z,87.41
2023-01-17T00:31:35.152Z,87.30
2023-01-17T00:32:37.757Z,87.13
2023-01-17T00:33:40.606Z,87.24
2023-01-17T00:34:43.499Z,87.21
2023-01-17T00:35:46.128Z,86.98
2023-01-17T00:36:51.256Z,86.94
2023-01-17T00:38:03.788Z,86.88
2023-01-17T00:39:06.485Z,86.95
2023-01-17T00:40:10.561Z,86.80
2023-01-17T00:41:15.611Z,86.74
2023-01-17T00:42:18.292Z,86.61
2023-01-17T00:43:42.248Z,86.70
2023-01-17T00:45:03.468Z,86.51
2023-01-17T00:46:25.064Z,86.31
2023-01-17T00:47:48.304Z,86.16
2023-01-17T00:49:09.857Z,86.15
2023-01-17T00:50:30.971Z,86.27
2023-01-17T00:51:54.183Z,86.40
2023-01-17T00:53:15.305Z,86.45
2023-01-17T00:54:36.991Z,86.36
2023-01-17T00:55:58.018Z,86.35
2023-01-17T00:57:19.857Z,86.27
2023-01-17T00:58:40.925Z,86.14
2023-01-17T01:00:02.093Z,86.36
2023-01-17T01:01:26.947Z,86.58
2023-01-17T01:02:50.223Z,86.46
2023-01-17T01:04:11.302Z,86.58
2023-01-17T01:05:33.513Z,86.54
2023-01-17T01:06:54.611Z,86.46
2023-01-17T01:08:16.206Z,86.58
2023-01-17T01:09:37.043Z,86.57
2023-01-17T01:10:58.364Z,86.43
2023-01-17T01:12:19.434Z,86.61
2023-01-17T01:17:06.244Z,86.63
2023-01-17T01:18:28.820Z,86.70
2023-01-17T01:19:49.902Z,86.60
2023-01-17T01:21:10.898Z,86.75
2023-01-17T01:22:40.632Z,86.72
2023-01-17T01:28:34.021Z,87.08
2023-01-17T01:29:55.455Z,87.00
2023-01-17T01:31:19.517Z,87.14
2023-01-17T01:32:40.606Z,87.04
2023-01-17T01:33:43.283Z,86.99
2023-01-17T01:34:45.924Z,86.94
2023-01-17T01:35:51.059Z,87.03
2023-01-17T01:36:53.724Z,87.04
2023-01-17T01:37:56.434Z,87.02
2023-01-17T01:38:59.109Z,87.14
2023-01-17T01:40:01.919Z,87.20
2023-01-17T01:41:05.087Z,87.37
2023-01-17T01:42:16.515Z,87.33
2023-01-17T01:43:22.534Z,87.18
2023-01-17T01:44:52.476Z,87.24
2023-01-17T01:45:59.229Z,87.14
2023-01-17T01:47:02.167Z,86.99
2023-01-17T01:48:26.046Z,87.08
2023-01-17T01:49:30.694Z,87.03
2023-01-17T01:50:37.342Z,87.01
2023-01-17T01:51:45.931Z,87.07
2023-01-17T01:52:52.740Z,87.11
2023-01-17T01:54:01.035Z,87.07
2023-01-17T01:55:08.587Z,87.12
2023-01-17T01:56:14.688Z,87.15
2023-01-17T01:57:21.166Z,87.17
2023-01-17T01:58:28.089Z,87.22
2023-01-17T01:59:32.042Z,87.22
2023-01-17T02:00:37.706Z,87.13
2023-01-17T02:01:40.599Z,87.06
2023-01-17T02:02:45.782Z,87.01
2023-01-17T02:03:50.336Z,86.92
2023-01-17T02:04:53.709Z,87.00
2023-01-17T02:05:56.507Z,86.90
2023-01-17T02:07:08.307Z,86.69
2023-01-17T02:08:17.671Z,86.54
2023-01-17T02:09:21.333Z,86.49
2023-01-17T02:10:24.100Z,86.37
2023-01-17T02:11:27.398Z,86.26
2023-01-17T02:12:30.137Z,86.20
2023-01-17T02:13:32.795Z,86.20
2023-01-17T02:14:35.530Z,86.11
2023-01-17T02:15:38.259Z,86.11
2023-01-17T02:16:45.414Z,86.03
2023-01-17T02:18:22.599Z,86.09
2023-01-17T02:19:35.657Z,86.15
2023-01-17T02:20:42.096Z,86.28
2023-01-17T02:22:16.711Z,86.28
2023-01-17T02:23:37.265Z,86.48
2023-01-17T02:25:04.725Z,86.54
2023-01-17T02:26:54.598Z,86.54
2023-01-17T02:28:16.711Z,86.61
2023-01-17T02:29:40.901Z,86.65
2023-01-17T02:30:48.290Z,86.85
2023-01-17T02:32:04.308Z,86.83
2023-01-17T02:33:11.107Z,86.91
2023-01-17T02:34:18.403Z,87.00
2023-01-17T02:35:29.940Z,87.24
2023-01-17T02:37:01.330Z,87.08
2023-01-17T02:38:24.984Z,87.07
2023-01-17T02:39:38.382Z,87.05
2023-01-17T02:40:56.119Z,86.99
2023-01-17T02:42:04.815Z,87.19
2023-01-17T02:43:14.730Z,87.23
2023-01-17T02:44:20.668Z,87.19
2023-01-17T02:45:23.599Z,87.14
2023-01-17T02:46:26.349Z,87.17
2023-01-17T02:47:31.378Z,87.23
2023-01-17T02:48:38.117Z,87.25
2023-01-17T02:49:40.912Z,87.17
2023-01-17T03:05:22.344Z,86.05
2023-01-17T03:06:33.513Z,85.88
2023-01-17T03:07:40.903Z,85.93
2023-01-17T03:08:46.980Z,86.03
2023-01-17T03:09:54.698Z,86.12
2023-01-17T03:10:58.346Z,86.11
2023-01-17T03:12:01.136Z,86.02
2023-01-17T03:13:05.098Z,85.96
2023-01-17T03:14:07.745Z,86.00
2023-01-17T03:15:15.935Z,86.09
2023-01-17T03:16:23.148Z,85.96
2023-01-17T03:17:32.806Z,85.76
2023-01-17T03:18:35.783Z,85.69
2023-01-17T03:19:38.571Z,85.82
2023-01-17T03:20:41.219Z,85.67
2023-01-17T03:21:44.068Z,85.69
2023-01-17T03:22:46.732Z,85.82
2023-01-17T03:23:49.404Z,85.93
2023-01-17T03:24:52.123Z,85.84
2023-01-17T03:25:54.802Z,85.72
2023-01-17T03:26:57.513Z,85.78
2023-01-17T03:28:00.208Z,85.80
2023-01-17T03:29:03.289Z,85.87
2023-01-17T03:30:06.478Z,86.16
2023-01-17T03:31:09.289Z,86.20
2023-01-17T03:32:11.917Z,85.98
2023-01-17T03:33:14.648Z,85.84
2023-01-17T03:34:17.317Z,85.76
2023-01-17T03:35:20.003Z,85.65
2023-01-17T03:36:22.790Z,85.48
2023-01-17T03:37:25.712Z,85.51
2023-01-17T03:38:29.952Z,85.40
2023-01-17T03:39:32.602Z,85.42
2023-01-17T03:40:35.315Z,85.53
2023-01-17T03:41:37.969Z,85.44
2023-01-17T03:42:40.980Z,85.52
2023-01-17T03:43:43.637Z,85.54
2023-01-17T03:44:46.678Z,85.48
2023-01-17T03:45:55.457Z,85.65
2023-01-17T03:46:58.225Z,85.55
2023-01-17T03:48:01.373Z,85.54
2023-01-17T03:49:04.033Z,85.56
2023-01-17T03:50:07.239Z,85.44
2023-01-17T03:51:09.904Z,85.57
2023-01-17T03:52:12.548Z,85.47
2023-01-17T03:53:15.178Z,85.30
2023-01-17T03:54:17.797Z,85.36
2023-01-17T03:55:20.453Z,85.30
2023-01-17T03:56:23.122Z,85.27
2023-01-17T03:57:27.100Z,85.15
2023-01-17T03:58:30.014Z,85.10
2023-01-17T03:59:35.064Z,84.96
2023-01-17T04:00:38.023Z,85.04
2023-01-17T04:01:40.788Z,84.96
2023-01-17T04:02:43.861Z,85.01
2023-01-17T04:03:46.704Z,84.94
2023-01-17T04:04:49.381Z,84.97
2023-01-17T04:05:52.269Z,84.93
2023-01-17T04:06:55.709Z,84.92
2023-01-17T04:19:50.180Z,85.02
2023-01-17T04:20:53.704Z,85.02
2023-01-17T04:21:56.433Z,84.91
2023-01-17T04:22:59.150Z,84.97
2023-01-17T04:24:01.831Z,84.98
2023-01-17T04:25:04.627Z,85.22
2023-01-17T04:26:07.313Z,85.05
2023-01-17T04:27:15.259Z,85.05
2023-01-17T04:28:17.990Z,84.88
2023-01-17T04:29:20.798Z,84.79
2023-01-17T04:30:23.635Z,84.65
2023-01-17T04:31:26.279Z,84.58
2023-01-17T04:32:30.659Z,84.52
2023-01-17T04:33:33.557Z,84.47
2023-01-17T04:34:36.238Z,84.48
2023-01-17T04:35:38.880Z,84.44
2023-01-17T04:36:41.813Z,84.25
2023-01-17T04:37:47.168Z,84.22
2023-01-17T04:38:49.791Z,84.08
2023-01-17T04:39:52.499Z,84.24
2023-01-17T04:40:55.112Z,84.14
2023-01-17T04:41:57.840Z,84.31
2023-01-17T04:43:00.673Z,84.42
2023-01-17T04:44:03.381Z,84.38
2023-01-17T04:45:06.518Z,84.24
2023-01-17T04:46:11.210Z,84.11
2023-01-17T04:47:13.871Z,84.02
2023-01-17T04:48:16.503Z,83.84
2023-01-17T04:49:19.146Z,83.98
2023-01-17T04:50:21.889Z,83.96
2023-01-17T04:51:24.556Z,83.96
2023-01-17T04:52:27.259Z,83.78
2023-01-17T04:53:30.138Z,83.37
2023-01-17T04:54:32.758Z,83.78
2023-01-17T04:55:35.437Z,84.06
2023-01-17T04:56:45.611Z,84.18
2023-01-17T04:57:57.570Z,84.01
2023-01-17T04:59:02.192Z,83.86
2023-01-17T05:02:11.602Z,83.62
2023-01-17T05:03:14.527Z,83.55
2023-01-17T05:05:09.903Z,83.60
2023-01-17T05:05:53.899Z,83.57
2023-01-17T05:07:02.885Z,83.48
2023-01-17T05:08:08.220Z,83.13
2023-01-17T05:09:10.895Z,83.34
2023-01-17T05:10:16.865Z,83.43
2023-01-17T05:11:25.310Z,83.05
2023-01-17T05:12:29.071Z,83.62
2023-01-17T05:13:31.767Z,83.72
2023-01-17T05:14:35.464Z,83.58
2023-01-17T05:15:41.379Z,83.37
2023-01-17T05:16:44.117Z,83.12
2023-01-17T05:17:46.734Z,83.12
2023-01-17T05:18:53.720Z,83.05
2023-01-17T05:19:56.360Z,83.47
2023-01-17T05:21:03.239Z,83.25
2023-01-17T05:22:15.873Z,83.34
2023-01-17T05:23:18.571Z,83.12
2023-01-17T05:24:21.840Z,82.97
2023-01-17T05:25:27.302Z,82.83
2023-01-17T05:26:29.958Z,82.68
2023-01-17T05:27:32.602Z,82.73
2023-01-17T05:28:35.282Z,82.68
2023-01-17T05:29:38.163Z,82.96
2023-01-17T05:30:41.115Z,82.89
2023-01-17T05:31:43.856Z,82.85
2023-01-17T05:32:50.716Z,82.69
2023-01-17T05:33:53.427Z,82.36
2023-01-17T05:34:56.087Z,82.48
2023-01-17T05:35:59.302Z,82.64
2023-01-17T05:37:02.627Z,82.87
2023-01-17T05:38:05.766Z,83.04
2023-01-17T05:39:08.556Z,83.00
2023-01-17T05:40:11.980Z,83.14
2023-01-17T05:41:14.684Z,83.27
2023-01-17T05:42:17.346Z,83.02
2023-01-17T05:43:39.972Z,83.26
2023-01-17T05:46:22.269Z,82.65
2023-01-17T05:47:28.367Z,82.57
2023-01-17T05:48:31.245Z,82.78
2023-01-17T05:57:22.184Z,83.06
2023-01-17T05:58:24.859Z,83.25
2023-01-17T05:59:36.980Z,83.28
2023-01-17T06:00:40.289Z,83.31
2023-01-17T06:01:43.464Z,83.49
2023-01-17T06:02:47.180Z,83.46
2023-01-17T06:03:49.920Z,83.50
2023-01-17T06:04:52.751Z,83.59
2023-01-17T06:05:56.392Z,83.70
2023-01-17T06:06:59.016Z,83.93
2023-01-17T06:08:01.770Z,83.90
2023-01-17T06:09:04.617Z,83.89
2023-01-17T06:10:07.775Z,84.01
2023-01-17T06:11:10.636Z,84.09
2023-01-17T06:12:13.353Z,84.21
2023-01-17T06:13:21.829Z,84.30
2023-01-17T06:14:24.457Z,84.44
2023-01-17T06:15:27.197Z,84.49
2023-01-17T06:16:30.993Z,84.65
2023-01-17T06:17:33.682Z,84.70
2023-01-17T06:18:36.314Z,84.69
2023-01-17T06:19:38.932Z,84.69
2023-01-17T06:20:41.676Z,84.70
2023-01-17T06:21:44.480Z,84.76
2023-01-17T06:22:47.096Z,84.70
2023-01-17T06:23:49.756Z,84.64
2023-01-17T06:24:52.552Z,84.63
2023-01-17T06:25:55.236Z,84.56
2023-01-17T06:27:01.416Z,84.57
2023-01-17T06:28:04.166Z,84.45
2023-01-17T06:29:06.970Z,84.51
2023-01-17T06:30:10.358Z,84.57
2023-01-17T06:31:13.147Z,84.62
2023-01-17T06:32:15.860Z,84.61
2023-01-17T06:33:18.603Z,84.58
2023-01-17T06:34:21.237Z,84.57
2023-01-17T06:35:24.455Z,84.56
2023-01-17T06:36:27.070Z,84.58
2023-01-17T06:37:29.870Z,84.44
2023-01-17T06:38:32.675Z,84.49
2023-01-17T06:39:35.327Z,84.45
2023-01-17T06:40:37.993Z,84.48
2023-01-17T06:41:40.666Z,84.31
2023-01-17T06:42:43.399Z,84.19
2023-01-17T06:43:46.018Z,84.11
2023-01-17T06:44:48.652Z,83.75
2023-01-17T06:45:51.492Z,83.88
2023-01-17T06:46:54.700Z,84.05
2023-01-17T06:47:57.506Z,83.67
2023-01-17T06:49:00.117Z,83.66
2023-01-17T06:50:04.536Z,83.65
2023-01-17T06:51:07.394Z,83.52
2023-01-17T06:52:10.034Z,83.48
2023-01-17T06:53:12.674Z,83.65
2023-01-17T06:54:15.383Z,83.70
2023-01-17T06:55:18.171Z,83.66
2023-01-17T06:56:21.429Z,83.60
2023-01-17T06:57:24.186Z,83.30
2023-01-17T06:58:26.879Z,83.33
2023-01-17T06:59:30.154Z,83.19
2023-01-17T07:00:36.488Z,83.41
2023-01-17T07:01:41.007Z,83.69
2023-01-17T07:02:43.807Z,83.75
2023-01-17T07:03:46.582Z,83.79
2023-01-17T07:04:49.229Z,83.82
2023-01-17T07:05:52.420Z,83.65
2023-01-17T07:06:55.353Z,83.79
2023-01-17T07:07:58.784Z,83.96
2023-01-17T07:09:02.171Z,83.89
2023-01-17T07:10:06.117Z,83.91
2023-01-17T07:11:11.277Z,83.79
2023-01-17T07:12:16.495Z,83.87
2023-01-17T07:13:29.331Z,83.86
2023-01-17T07:15:42.688Z,83.47
2023-01-17T07:16:47.167Z,83.86
2023-01-17T07:17:49.805Z,83.98
2023-01-17T07:18:52.922Z,84.25
2023-01-17T07:19:55.549Z,84.25
2023-01-17T07:20:58.218Z,84.21
2023-01-17T07:22:00.877Z,84.19
2023-01-17T07:23:03.887Z,84.39
2023-01-17T07:24:07.093Z,84.11
2023-01-17T07:25:10.151Z,83.98
2023-01-17T07:26:12.826Z,83.92
2023-01-17T07:27:15.469Z,83.89
2023-01-17T07:28:18.090Z,83.70
2023-01-17T07:29:20.769Z,83.65
2023-01-17T07:30:26.521Z,83.56
2023-01-17T07:31:29.188Z,83.45
2023-01-17T07:32:31.923Z,83.28
2023-01-17T07:33:35.035Z,83.46
2023-01-17T07:34:38.185Z,83.46
2023-01-17T07:35:40.872Z,83.24
2023-01-17T07:36:59.769Z,83.17
2023-01-17T07:38:02.576Z,83.12
2023-01-17T07:39:19.981Z,83.02
2023-01-17T07:40:28.846Z,83.02
2023-01-17T07:41:42.248Z,83.06
2023-01-17T07:43:47.738Z,82.94
2023-01-17T07:44:50.380Z,82.80
2023-01-17T07:45:53.175Z,82.74
2023-01-17T07:46:56.241Z,82.66
2023-01-17T07:47:58.872Z,82.48
2023-01-17T07:49:02.055Z,83.07
2023-01-17T07:50:29.021Z,82.84
2023-01-17T07:52:59.020Z,82.52
2023-01-17T07:54:23.094Z,85.94
2023-01-17T07:55:41.888Z,84.33
2023-01-17T07:58:12.346Z,81.62
2023-01-17T07:59:15.239Z,81.62
2023-01-17T08:00:18.723Z,81.67
2023-01-17T08:01:21.372Z,81.71
2023-01-17T08:02:24.896Z,81.76
2023-01-17T08:03:27.554Z,81.85
2023-01-17T08:04:35.733Z,81.89
2023-01-17T08:05:38.455Z,81.57
2023-01-17T08:06:44.302Z,81.46
2023-01-17T08:07:46.967Z,81.34
2023-01-17T08:08:49.894Z,81.30
2023-01-17T08:09:53.010Z,81.36
2023-01-17T08:10:56.036Z,81.34
2023-01-17T08:11:58.784Z,80.86
2023-01-17T08:13:01.428Z,80.68
2023-01-17T08:14:04.080Z,80.75
2023-01-17T08:15:07.651Z,80.67
2023-01-17T08:16:11.572Z,80.53
2023-01-17T08:17:17.177Z,80.37
2023-01-17T08:18:19.907Z,79.99
2023-01-17T08:19:23.449Z,79.87
2023-01-17T08:20:27.994Z,79.88
2023-01-17T08:21:30.847Z,79.76
2023-01-17T08:22:33.573Z,79.10
2023-01-17T08:23:36.188Z,79.04
2023-01-17T08:24:39.616Z,78.86
2023-01-17T08:25:42.226Z,81.50
2023-01-17T08:26:44.850Z,82.58
2023-01-17T08:27:47.528Z,79.85
2023-01-17T08:28:58.301Z,79.04
2023-01-17T08:30:01.007Z,78.82
2023-01-17T08:31:12.511Z,78.90
2023-01-17T08:32:16.046Z,78.72
2023-01-17T08:33:18.857Z,78.49
2023-01-17T08:34:21.666Z,77.96
2023-01-17T08:35:24.361Z,77.82
2023-01-17T08:36:28.815Z,77.58
2023-01-17T08:37:31.472Z,77.77
2023-01-17T08:38:34.264Z,77.46
2023-01-17T08:39:37.257Z,77.18
2023-01-17T08:40:40.024Z,77.28
2023-01-17T08:41:42.889Z,77.47
2023-01-17T08:42:45.606Z,77.99
2023-01-17T08:43:49.516Z,77.71
2023-01-17T08:44:52.149Z,76.47
2023-01-17T08:45:57.057Z,75.67
2023-01-17T08:46:59.871Z,76.75
2023-01-17T08:48:02.498Z,77.54
2023-01-17T08:49:05.286Z,77.41
2023-01-17T10:51:54.127Z,61.44
2023-01-17T10:53:23.336Z,61.48
2023-01-17T10:54:50.593Z,61.50
2023-01-17T10:55:57.197Z,61.63
2023-01-17T10:57:00.352Z,62.14
2023-01-17T10:58:04.528Z,61.90
2023-01-17T10:59:17.115Z,61.32
2023-01-17T11:00:47.404Z,61.45
2023-01-17T11:01:51.282Z,61.59
2023-01-17T11:02:54.262Z,61.01
2023-01-17T11:03:57.282Z,60.43
2023-01-17T14:24:55.498Z,69.35
2023-01-17T14:26:13.495Z,69.29
2023-01-17T14:27:21.940Z,69.34
2023-01-17T14:28:24.579Z,69.63
2023-01-17T14:29:57.966Z,69.42
2023-01-17T14:31:04.050Z,69.31
2023-01-17T14:32:10.984Z,69.49
2023-01-17T14:33:20.442Z,69.50
2023-01-17T14:34:23.907Z,69.50
2023-01-17T14:35:31.037Z,69.22
2023-01-17T14:36:34.474Z,69.25
2023-01-17T14:37:43.455Z,69.34
2023-01-17T14:38:47.251Z,68.78
2023-01-17T14:39:51.602Z,69.02
2023-01-17T14:41:08.026Z,69.12
2023-01-17T14:42:21.953Z,69.11
2023-01-17T14:43:27.558Z,68.82
2023-01-17T14:44:30.241Z,68.70
2023-01-17T14:45:36.064Z,68.90
2023-01-17T14:46:38.755Z,69.19
2023-01-17T14:47:46.414Z,68.60
2023-01-17T14:49:08.123Z,68.21
2023-01-17T14:50:23.520Z,68.43
2023-01-17T14:51:26.139Z,68.67
2023-01-17T14:52:28.789Z,68.81
2023-01-17T14:53:34.267Z,68.84
2023-01-17T14:54:37.885Z,68.91
2023-01-17T14:55:56.137Z,68.96
2023-01-17T14:57:25.407Z,69.21
2023-01-17T14:58:34.402Z,69.16
2023-01-17T14:59:37.078Z,69.26
2023-01-17T15:00:40.618Z,69.26
2023-01-17T15:02:06.135Z,69.47
2023-01-17T15:03:13.611Z,69.46
2023-01-17T15:04:31.117Z,69.45
2023-01-17T15:05:34.502Z,69.41
2023-01-17T15:06:40.134Z,69.35
2023-01-17T15:07:45.026Z,69.26
2023-01-17T15:08:48.497Z,69.09
2023-01-17T15:09:51.275Z,69.35
2023-01-17T15:11:01.452Z,69.49
2023-01-17T15:12:04.946Z,69.68
2023-01-17T15:13:10.655Z,69.48
2023-01-17T15:14:21.586Z,69.59
2023-01-17T15:15:36.455Z,69.54
2023-01-17T15:16:39.956Z,69.63
2023-01-17T15:17:43.376Z,69.82
2023-01-17T15:18:46.206Z,70.22
2023-01-17T15:20:00.946Z,70.14
2023-01-17T15:21:05.968Z,70.06
2023-01-17T15:22:08.873Z,69.86
2023-01-17T15:23:19.846Z,69.59
2023-01-17T15:24:35.447Z,69.56
2023-01-17T15:25:39.071Z,69.71
2023-01-17T15:26:44.410Z,69.69
2023-01-17T15:27:47.123Z,69.43
2023-01-17T15:28:50.207Z,69.17
2023-01-17T15:29:53.484Z,69.52
2023-01-17T15:31:11.256Z,69.55
2023-01-17T15:32:25.296Z,69.43
2023-01-17T15:33:28.025Z,69.73
2023-01-17T15:34:32.113Z,69.49
2023-01-17T15:35:35.339Z,69.71
2023-01-17T15:36:38.053Z,69.66
2023-01-17T15:37:41.672Z,69.76
2023-01-17T15:38:55.534Z,70.17
2023-01-17T15:40:04.048Z,70.07
2023-01-17T15:41:14.720Z,70.24
2023-01-17T15:42:25.895Z,70.06
2023-01-17T15:43:37.003Z,70.08
2023-01-17T15:44:48.671Z,70.05
2023-01-17T15:45:58.140Z,69.94
2023-01-17T15:47:01.928Z,69.68
2023-01-17T15:48:41.661Z,69.62
2023-01-17T15:49:52.145Z,69.79
2023-01-17T15:51:00.725Z,69.93
2023-01-17T15:52:03.341Z,69.62
2023-01-17T15:53:14.411Z,69.29
2023-01-17T15:54:32.262Z,69.60
2023-01-17T15:55:38.407Z,69.49
2023-01-17T15:56:43.017Z,69.82
2023-01-17T15:57:48.641Z,69.47
2023-01-17T15:58:51.851Z,69.62
2023-01-17T16:00:58.602Z,69.92
2023-01-17T16:02:01.486Z,69.29
2023-01-17T16:03:22.680Z,69.07
2023-01-17T16:04:38.155Z,69.47
2023-01-17T16:05:43.040Z,69.52
2023-01-17T16:06:48.490Z,69.47
2023-01-17T16:08:07.094Z,69.70
2023-01-17T16:09:21.509Z,69.60
2023-01-17T16:10:29.761Z,69.42
2023-01-17T16:11:32.474Z,69.42
2023-01-17T16:12:35.092Z,69.37
2023-01-17T16:13:43.975Z,69.50
2023-01-17T16:15:02.817Z,69.43
2023-01-17T16:16:13.671Z,69.52
2023-01-17T16:17:18.814Z,69.77
2023-01-17T16:18:26.904Z,70.25
2023-01-17T16:19:29.564Z,70.50
2023-01-17T16:20:37.744Z,70.71
2023-01-17T16:21:40.850Z,70.40
2023-01-17T16:22:44.981Z,70.57
2023-01-17T16:23:48.164Z,71.02
2023-01-17T16:24:50.881Z,71.04
2023-01-17T16:25:55.084Z,71.14
2023-01-17T16:26:58.207Z,71.22
2023-01-17T16:28:04.611Z,71.10
2023-01-17T16:29:08.696Z,71.63
2023-01-17T16:30:16.814Z,72.05
2023-01-17T16:31:20.113Z,72.25
2023-01-17T16:32:22.789Z,72.63
2023-01-17T16:33:25.570Z,72.55
2023-01-17T16:34:28.312Z,72.80
2023-01-17T16:35:34.774Z,73.33
2023-01-17T16:36:38.107Z,73.63
2023-01-17T16:37:40.897Z,74.28
2023-01-17T16:38:45.619Z,74.34
2023-01-17T16:39:48.295Z,74.88
2023-01-17T16:40:50.937Z,75.19
2023-01-17T16:42:00.807Z,75.34
2023-01-17T16:43:03.497Z,75.53
2023-01-17T16:44:07.278Z,75.90
2023-01-17T16:45:11.750Z,75.66
2023-01-17T16:46:14.453Z,76.11
2023-01-17T16:47:17.194Z,76.18
2023-01-17T16:48:20.975Z,76.41
2023-01-17T16:49:24.004Z,76.33
2023-01-17T16:50:26.698Z,76.86
2023-01-17T16:51:29.359Z,76.65
2023-01-17T16:52:32.036Z,76.98
2023-01-17T16:53:35.006Z,77.42
2023-01-17T16:54:37.652Z,77.94
2023-01-17T16:55:42.818Z,77.66
2023-01-17T16:56:45.541Z,78.32
2023-01-17T16:57:48.317Z,78.98
2023-01-17T16:58:53.273Z,78.77
2023-01-17T16:59:56.084Z,78.71
2023-01-17T17:01:00.738Z,78.87
2023-01-17T17:02:06.259Z,79.13
2023-01-17T17:03:09.008Z,79.22
2023-01-17T17:04:14.331Z,79.07
2023-01-17T17:05:17.165Z,79.22
2023-01-17T17:06:19.885Z,80.00
2023-01-17T17:07:22.875Z,79.78
2023-01-17T17:08:25.868Z,80.06
2023-01-17T17:09:28.641Z,80.30
2023-01-17T17:10:32.458Z,80.55
2023-01-17T17:11:35.842Z,80.90
2023-01-17T17:12:39.299Z,81.10
2023-01-17T17:13:43.942Z,81.02
2023-01-17T17:14:46.973Z,81.30
2023-01-17T17:15:50.849Z,81.40
2023-01-17T17:16:54.139Z,81.34
2023-01-17T17:17:57.331Z,81.39
2023-01-17T17:19:02.940Z,81.67
2023-01-17T17:20:13.591Z,81.76
2023-01-17T17:21:16.657Z,81.91
2023-01-17T17:22:19.932Z,81.68
2023-01-17T17:23:22.661Z,81.86
2023-01-17T17:24:25.806Z,82.10
2023-01-17T17:25:28.909Z,82.16
2023-01-17T17:26:37.502Z,82.28
2023-01-17T17:27:40.631Z,82.16
2023-01-17T17:28:43.787Z,82.18
2023-01-17T17:29:46.449Z,82.08
2023-01-17T17:30:49.160Z,82.40
2023-01-17T17:31:51.893Z,82.17
2023-01-17T17:32:54.541Z,82.29
2023-01-17T17:34:02.603Z,82.27
2023-01-17T17:35:11.493Z,82.36
2023-01-17T17:36:14.652Z,82.38
2023-01-17T17:37:17.703Z,82.48
2023-01-17T17:38:20.336Z,82.59
2023-01-17T17:39:22.974Z,82.63
2023-01-17T17:40:25.679Z,82.72
2023-01-17T17:41:35.001Z,82.69
2023-01-17T17:42:37.775Z,82.83
2023-01-17T17:43:42.295Z,82.88
2023-01-17T17:44:44.910Z,82.82
2023-01-17T17:45:47.709Z,82.85
2023-01-17T17:46:52.394Z,82.66
2023-01-17T17:47:55.171Z,82.40
2023-01-17T17:49:02.097Z,82.72
2023-01-17T17:50:07.938Z,82.64
2023-01-17T17:51:26.590Z,82.62
2023-01-17T17:52:29.754Z,82.72
2023-01-17T17:53:33.352Z,82.40
2023-01-17T17:54:36.420Z,82.37
2023-01-17T17:55:41.131Z,82.20
2023-01-17T17:56:48.414Z,82.08
2023-01-17T17:57:51.221Z,82.20
2023-01-17T17:58:54.407Z,82.08
2023-01-17T17:59:57.836Z,82.33
2023-01-17T18:01:03.969Z,82.30
2023-01-17T18:02:11.673Z,82.21
2023-01-17T18:03:14.449Z,81.97
2023-01-17T18:04:17.227Z,81.89
2023-01-17T18:05:19.854Z,82.06
2023-01-17T18:06:22.808Z,81.99
2023-01-17T18:07:25.463Z,82.17
2023-01-17T18:08:33.487Z,82.31
2023-01-17T18:09:36.140Z,82.43
2023-01-17T18:10:39.350Z,82.12
2023-01-17T18:11:43.773Z,82.40
2023-01-17T18:12:46.478Z,82.31
2023-01-17T18:13:53.551Z,82.58
2023-01-17T18:14:56.225Z,82.47
2023-01-17T18:16:29.912Z,82.30
2023-01-17T18:17:32.819Z,82.17
2023-01-17T18:18:37.720Z,81.98
2023-01-17T18:19:41.172Z,82.07
2023-01-17T18:20:43.818Z,82.23
2023-01-17T18:21:47.133Z,81.93
2023-01-17T18:22:49.771Z,81.74
2023-01-17T18:24:14.028Z,81.55
2023-01-17T18:25:16.875Z,81.51
2023-01-17T18:27:52.389Z,81.61
2023-01-17T18:28:56.734Z,81.57
2023-01-17T18:29:59.647Z,81.62
2023-01-17T18:31:06.698Z,81.58
2023-01-17T18:32:09.728Z,81.31
2023-01-17T18:33:13.903Z,80.69
2023-01-17T18:34:30.225Z,81.01
2023-01-17T18:35:32.919Z,80.58
2023-01-17T18:36:35.954Z,81.13
2023-01-17T18:37:38.679Z,81.17
2023-01-17T18:38:47.470Z,81.53
2023-01-17T18:39:50.490Z,81.63
2023-01-17T18:40:53.101Z,81.77
2023-01-17T18:41:59.546Z,81.81
2023-01-17T18:43:02.178Z,81.81
2023-01-17T18:44:07.131Z,81.82
2023-01-17T18:45:10.199Z,81.45
2023-01-17T18:46:13.824Z,81.66
2023-01-17T18:47:16.502Z,81.58
2023-01-17T18:48:19.110Z,81.45
2023-01-17T18:49:21.800Z,81.53
2023-01-17T18:50:24.568Z,81.52
2023-01-17T18:51:29.486Z,81.48
2023-01-17T18:52:32.194Z,81.44
2023-01-17T18:53:36.532Z,81.53
2023-01-17T18:54:39.168Z,81.70
2023-01-17T18:55:41.804Z,81.47
2023-01-17T18:56:44.567Z,81.59
2023-01-17T18:57:47.215Z,81.70
2023-01-17T18:58:51.504Z,81.76
2023-01-17T18:59:54.253Z,81.54
2023-01-17T19:01:08.003Z,81.13
2023-01-17T19:02:10.740Z,81.25
2023-01-17T19:03:13.425Z,81.20
2023-01-17T19:04:17.480Z,81.10
2023-01-17T19:05:22.675Z,81.36
2023-01-17T19:06:28.508Z,81.41
2023-01-17T19:07:33.469Z,81.28
2023-01-17T19:08:36.663Z,81.04
2023-01-17T19:09:39.568Z,80.99
2023-01-17T19:10:42.377Z,80.64
2023-01-17T19:11:46.108Z,80.62
2023-01-17T19:12:48.767Z,80.57
2023-01-17T19:13:53.460Z,80.84
2023-01-17T19:14:56.080Z,80.92
2023-01-17T19:16:02.053Z,81.28
2023-01-17T19:17:04.859Z,80.88
2023-01-17T19:18:07.517Z,81.10
2023-01-17T19:19:16.662Z,80.87
2023-01-17T19:20:20.073Z,80.50
2023-01-17T19:21:25.340Z,80.45
2023-01-17T19:22:28.012Z,80.33
2023-01-17T19:23:30.663Z,80.45
2023-01-17T19:24:33.400Z,80.83
2023-01-17T19:25:36.853Z,80.11
2023-01-17T19:26:40.234Z,80.33
2023-01-17T19:27:43.180Z,80.73
2023-01-17T19:28:47.859Z,80.37
2023-01-17T19:29:50.459Z,80.03
2023-01-17T19:31:06.356Z,79.97
2023-01-17T19:32:10.797Z,80.52
2023-01-17T19:33:13.514Z,80.16
2023-01-17T19:34:25.808Z,79.98
2023-01-17T19:35:28.429Z,80.26
2023-01-17T19:36:37.993Z,80.21
2023-01-17T19:37:52.223Z,80.21
2023-01-17T19:39:04.514Z,80.68
2023-01-17T19:40:09.505Z,80.47
2023-01-17T19:41:18.015Z,80.63
2023-01-17T19:42:21.449Z,81.30
2023-01-17T19:43:24.484Z,80.82
2023-01-17T19:44:30.486Z,80.76
2023-01-17T19:45:33.200Z,80.99
2023-01-17T19:46:38.417Z,81.50
2023-01-17T19:47:41.288Z,81.44
2023-01-17T19:48:50.702Z,81.57
2023-01-17T19:49:53.505Z,81.71
2023-01-17T19:50:56.817Z,81.90
2023-01-17T19:51:59.446Z,81.93
2023-01-17T19:53:02.109Z,81.36
2023-01-17T19:55:26.741Z,81.58
2023-01-17T19:56:30.706Z,81.36
2023-01-17T19:57:35.967Z,81.48
2023-01-17T19:58:39.557Z,81.38
2023-01-17T19:59:42.191Z,81.28
2023-01-17T20:00:46.732Z,81.45
2023-01-17T20:01:50.502Z,81.54
2023-01-17T20:02:53.300Z,81.47
2023-01-17T20:03:57.744Z,81.42
2023-01-17T20:05:00.678Z,81.43
2023-01-17T20:06:03.362Z,81.43
2023-01-17T20:07:06.024Z,81.56
2023-01-17T20:08:10.863Z,81.46
2023-01-17T20:09:14.373Z,81.73
2023-01-17T20:10:18.688Z,81.83
2023-01-17T20:11:23.761Z,81.67
2023-01-17T20:12:26.586Z,80.72
2023-01-17T20:13:29.235Z,81.19
2023-01-17T20:14:31.895Z,81.87
2023-01-17T20:15:35.368Z,81.85
2023-01-17T20:16:38.580Z,81.58
2023-01-17T20:17:41.225Z,81.55
2023-01-17T20:18:44.209Z,81.30
2023-01-17T20:19:47.468Z,82.15
2023-01-17T20:20:57.127Z,81.53
2023-01-17T20:22:00.186Z,82.15
2023-01-17T20:23:06.511Z,81.63
2023-01-17T20:24:12.243Z,81.98
2023-01-17T20:25:15.609Z,82.66
2023-01-17T20:26:20.961Z,82.18
2023-01-17T20:27:27.608Z,82.01
2023-01-17T20:28:34.820Z,82.37
2023-01-17T20:29:41.602Z,82.82
2023-01-17T20:30:44.245Z,81.84
2023-01-17T20:31:47.382Z,81.95